createdAt,value
2022-08-02T00:02:41.937Z,101914.00
2022-08-02T00:07:31.603Z,101906.25
2022-08-02T00:12:21.376Z,101914.19
2022-08-02T00:17:13.728Z,101909.06
2022-08-02T00:22:03.390Z,101896.91
2022-08-02T00:26:53.142Z,101894.28
2022-08-02T00:31:42.874Z,101884.75
2022-08-02T00:36:35.466Z,101880.38
2022-08-02T00:41:26.384Z,101887.53
2022-08-02T00:46:17.072Z,101879.78
2022-08-02T00:51:07.054Z,101878.00
2022-08-02T00:55:59.357Z,101878.97
2022-08-02T01:00:49.030Z,101884.28
2022-08-02T01:06:09.157Z,101889.59
2022-08-02T01:10:48.780Z,101885.34
2022-08-02T01:15:48.888Z,101881.88
2022-08-02T01:21:03.547Z,101866.16
2022-08-02T01:26:20.067Z,101861.03
2022-08-02T01:31:21.562Z,101843.75
2022-08-02T01:36:14.762Z,101858.53
2022-08-02T01:41:06.834Z,101862.13
2022-08-02T01:45:59.358Z,101856.97
2022-08-02T01:50:53.866Z,101858.81
2022-08-02T01:55:56.928Z,101852.81
2022-08-02T02:00:51.080Z,101855.41
2022-08-02T02:05:42.353Z,101857.16
2022-08-02T02:10:38.503Z,101857.25
2022-08-02T02:15:29.391Z,101846.78
2022-08-02T02:20:21.316Z,101829.50
2022-08-02T02:25:11.624Z,101842.00
2022-08-02T02:30:04.270Z,101830.78
2022-08-02T02:34:54.058Z,101830.03
2022-08-02T02:39:44.964Z,101830.97
2022-08-02T02:44:35.965Z,101833.59
2022-08-02T02:49:28.910Z,101830.16
2022-08-02T02:54:30.361Z,101823.19
2022-08-02T02:59:23.839Z,101824.09
2022-08-02T03:04:14.506Z,101823.28
2022-08-02T03:09:07.255Z,101811.06
2022-08-02T03:13:57.578Z,101815.41
2022-08-02T03:18:47.308Z,101811.97
2022-08-02T03:23:37.703Z,101824.25
2022-08-02T03:28:30.288Z,101821.63
2022-08-02T03:33:21.000Z,101804.19
2022-08-02T03:38:11.816Z,101791.16
2022-08-02T03:43:02.492Z,101779.88
2022-08-02T03:47:58.827Z,101773.81
2022-08-02T03:52:50.360Z,101790.41
2022-08-02T03:57:40.743Z,101774.75
2022-08-02T04:02:30.432Z,101766.06
2022-08-02T04:08:34.365Z,101761.72
2022-08-02T04:12:32.110Z,101769.63
2022-08-02T04:17:23.454Z,101772.25
2022-08-02T04:22:17.145Z,101771.44
2022-08-02T04:27:48.970Z,101779.28
2022-08-02T04:32:20.931Z,101777.59
2022-08-02T04:37:10.357Z,101767.19
2022-08-02T04:41:59.799Z,101773.31
2022-08-02T04:46:53.369Z,101771.56
2022-08-02T04:51:46.810Z,101783.75
2022-08-02T04:56:36.414Z,101786.41
2022-08-02T05:01:25.971Z,101768.97
2022-08-02T05:06:19.915Z,101772.50
2022-08-02T05:11:10.207Z,101775.97
2022-08-02T05:16:03.895Z,101782.94
2022-08-02T05:21:00.060Z,101785.53
2022-08-02T05:25:54.318Z,101789.88
2022-08-02T05:30:44.093Z,101780.31
2022-08-02T05:35:33.972Z,101782.03
2022-08-02T05:40:26.020Z,101784.66
2022-08-02T05:45:20.678Z,101785.53
2022-08-02T05:50:10.833Z,101795.97
2022-08-02T05:55:04.209Z,101776.84
2022-08-02T06:00:02.804Z,101775.94
2022-08-02T06:05:06.973Z,101774.16
2022-08-02T06:09:58.164Z,101774.13
2022-08-02T06:14:54.045Z,101774.06
2022-08-02T06:19:51.495Z,101764.44
2022-08-02T06:24:46.536Z,101760.84
2022-08-02T06:29:38.983Z,101767.75
2022-08-02T06:34:28.539Z,101765.91
2022-08-02T06:39:23.977Z,101757.97
2022-08-02T06:49:25.831Z,101766.44
2022-08-02T06:54:36.251Z,101757.66
2022-08-02T06:59:28.240Z,101761.94
2022-08-02T07:04:20.284Z,101757.41
2022-08-02T07:09:25.079Z,101754.63
2022-08-02T07:14:14.698Z,101759.66
2022-08-02T07:19:06.644Z,101758.53
2022-08-02T07:23:56.081Z,101767.03
2022-08-02T07:28:46.123Z,101760.66
2022-08-02T07:33:37.805Z,101754.25
2022-08-02T07:38:31.848Z,101754.91
2022-08-02T07:43:23.933Z,101758.13
2022-08-02T07:48:13.531Z,101744.78
2022-08-02T07:53:03.161Z,101748.94
2022-08-02T07:57:55.541Z,101746.00
2022-08-02T08:02:44.921Z,101744.75
2022-08-02T08:07:34.409Z,101747.00
2022-08-02T08:12:24.314Z,101744.75
2022-08-02T08:17:16.296Z,101748.56
2022-08-02T08:22:06.146Z,101743.66
2022-08-02T08:26:55.737Z,101753.00
2022-08-02T08:31:45.306Z,101755.34
2022-08-02T08:36:40.688Z,101755.84
2022-08-02T08:41:30.242Z,101745.09
2022-08-02T08:46:28.749Z,101741.91
2022-08-02T08:51:19.116Z,101735.00
2022-08-02T08:56:15.731Z,101731.56
2022-08-02T09:01:05.891Z,101756.06
2022-08-02T09:05:55.392Z,101749.91
2022-08-02T09:10:45.869Z,101749.22
2022-08-02T09:15:37.952Z,101748.72
2022-08-02T09:20:30.741Z,101754.06
2022-08-02T09:25:20.355Z,101754.97
2022-08-02T09:30:16.890Z,101753.28
2022-08-02T09:35:11.023Z,101762.91
2022-08-02T09:40:03.629Z,101764.56
2022-08-02T09:44:57.192Z,101752.91
2022-08-02T09:49:52.271Z,101765.63
2022-08-02T09:54:44.764Z,101767.94
2022-08-02T09:59:34.218Z,101765.03
2022-08-02T10:04:24.963Z,101761.63
2022-08-02T10:09:15.911Z,101767.53
2022-08-02T10:14:09.381Z,101772.34
2022-08-02T10:19:02.143Z,101772.59
2022-08-02T10:23:52.754Z,101781.53
2022-08-02T10:28:42.229Z,101765.06
2022-08-02T10:33:35.708Z,101752.00
2022-08-02T10:38:25.249Z,101755.28
2022-08-02T10:43:15.144Z,101748.78
2022-08-02T10:48:07.111Z,101746.16
2022-08-02T10:53:23.916Z,101730.16
2022-08-02T10:58:21.768Z,101745.44
2022-08-02T11:03:44.696Z,101739.53
2022-08-02T11:08:37.302Z,101734.31
2022-08-02T11:13:27.196Z,101747.94
2022-08-02T11:18:17.049Z,101739.50
2022-08-02T11:23:45.407Z,101732.25
2022-08-02T11:28:36.966Z,101728.97
2022-08-02T11:33:33.727Z,101733.41
2022-08-02T11:38:24.566Z,101749.03
2022-08-02T11:43:25.120Z,101725.75
2022-08-02T11:48:15.075Z,101737.53
2022-08-02T11:53:15.817Z,101742.72
2022-08-02T11:58:10.092Z,101736.84
2022-08-02T12:03:02.912Z,101732.34
2022-08-02T12:07:54.609Z,101727.31
2022-08-02T12:12:52.189Z,101727.22
2022-08-02T12:17:56.531Z,101724.84
2022-08-02T12:22:48.887Z,101722.47
2022-08-02T12:27:41.398Z,101722.72
2022-08-02T12:32:31.390Z,101723.97
2022-08-02T12:37:28.723Z,101723.59
2022-08-02T12:42:21.179Z,101707.88
2022-08-02T12:47:12.397Z,101704.22
2022-08-02T12:52:11.553Z,101713.94
2022-08-02T12:57:02.572Z,101700.47
2022-08-02T13:01:54.995Z,101703.75
2022-08-02T13:06:45.507Z,101691.78
2022-08-02T13:11:35.540Z,101701.22
2022-08-02T13:16:30.916Z,101684.66
2022-08-02T13:21:41.428Z,101688.69
2022-08-02T13:26:33.423Z,101677.84
2022-08-02T13:31:36.195Z,101671.19
2022-08-02T13:36:30.091Z,101671.94
2022-08-02T13:41:19.867Z,101660.53
2022-08-02T13:46:09.617Z,101651.09
2022-08-02T13:50:59.379Z,101643.72
2022-08-02T13:55:56.041Z,101641.44
2022-08-02T14:00:46.105Z,101629.22
2022-08-02T14:05:46.928Z,101631.84
2022-08-02T14:10:38.488Z,101632.28
2022-08-02T14:15:33.000Z,101624.78
2022-08-02T14:20:30.004Z,101624.47
2022-08-02T14:25:20.643Z,101616.69
2022-08-02T14:30:11.862Z,101615.53
2022-08-02T14:35:04.331Z,101609.47
2022-08-02T14:40:00.172Z,101601.38
2022-08-02T14:44:50.843Z,101590.06
2022-08-02T14:49:42.798Z,101606.69
2022-08-02T14:54:36.701Z,101597.47
2022-08-02T14:59:26.609Z,101594.53
2022-08-02T15:04:19.573Z,101591.56
2022-08-02T15:09:09.246Z,101582.81
2022-08-02T15:14:01.549Z,101575.78
2022-08-02T15:18:51.576Z,101580.94
2022-08-02T15:23:42.607Z,101573.69
2022-08-02T15:28:32.423Z,101574.69
2022-08-02T15:33:28.510Z,101570.91
2022-08-02T15:38:18.758Z,101564.03
2022-08-02T15:43:09.931Z,101566.69
2022-08-02T15:48:01.918Z,101570.50
2022-08-02T15:52:56.317Z,101556.75
2022-08-02T15:57:46.352Z,101564.97
2022-08-02T16:02:36.111Z,101562.19
2022-08-02T16:07:25.896Z,101561.13
2022-08-02T16:12:19.681Z,101561.81
2022-08-02T16:17:49.105Z,101555.91
2022-08-02T16:22:33.756Z,101567.16
2022-08-02T16:27:26.061Z,101563.72
2022-08-02T16:32:17.210Z,101558.19
2022-08-02T16:37:07.288Z,101560.28
2022-08-02T16:41:56.983Z,101572.16
2022-08-02T16:46:50.817Z,101561.09
2022-08-02T16:51:40.570Z,101560.34
2022-08-02T16:56:30.444Z,101561.22
2022-08-02T17:01:27.305Z,101568.41
2022-08-02T17:06:22.592Z,101551.06
2022-08-02T17:11:17.438Z,101568.06
2022-08-02T17:16:20.830Z,101570.63
2022-08-02T17:21:21.249Z,101576.47
2022-08-02T17:26:16.351Z,101577.53
2022-08-02T17:31:05.989Z,101564.34
2022-08-02T17:35:55.661Z,101581.69
2022-08-02T17:40:51.840Z,101579.16
2022-08-02T17:46:00.420Z,101583.81
2022-08-02T17:50:51.841Z,101572.56
2022-08-02T17:55:42.875Z,101580.31
2022-08-02T18:00:37.123Z,101573.94
2022-08-02T18:05:39.951Z,101577.59
2022-08-02T18:10:39.441Z,101577.53
2022-08-02T18:15:29.140Z,101586.03
2022-08-02T18:20:22.207Z,101592.06
2022-08-02T18:25:36.230Z,101585.63
2022-08-02T18:30:28.158Z,101577.13
2022-08-02T18:35:18.474Z,101598.56
2022-08-02T18:40:09.849Z,101586.91
2022-08-02T18:45:05.260Z,101592.69
2022-08-02T18:49:58.281Z,101595.84
2022-08-02T18:54:50.831Z,101591.44
2022-08-02T18:59:40.543Z,101588.00
2022-08-02T19:04:34.566Z,101583.47
2022-08-02T19:09:24.175Z,101577.25
2022-08-02T19:14:24.457Z,101582.59
2022-08-02T19:19:22.316Z,101582.31
2022-08-02T19:24:14.905Z,101571.41
2022-08-02T19:29:08.716Z,101567.16
2022-08-02T19:34:07.512Z,101563.78
2022-08-02T19:38:58.346Z,101570.09
2022-08-02T19:49:01.401Z,101577.09
2022-08-02T19:54:06.986Z,101581.53
2022-08-02T19:59:13.190Z,101582.63
2022-08-02T20:04:07.443Z,101586.69
2022-08-02T20:09:04.218Z,101594.97
2022-08-02T20:14:00.659Z,101589.25
2022-08-02T20:18:53.742Z,101591.41
2022-08-02T20:23:44.178Z,101586.72
2022-08-02T20:28:41.896Z,101587.78
2022-08-02T20:33:31.702Z,101584.41
2022-08-02T20:38:27.915Z,101601.22
2022-08-02T20:43:19.590Z,101589.31
2022-08-02T20:48:09.469Z,101582.44
2022-08-02T20:53:01.937Z,101584.22
2022-08-02T20:58:00.413Z,101584.38
2022-08-02T21:02:53.368Z,101577.72
2022-08-02T21:07:43.169Z,101575.25
2022-08-02T21:12:37.586Z,101577.81
2022-08-02T21:17:44.029Z,101571.78
2022-08-02T21:22:43.616Z,101577.16
2022-08-02T21:27:52.290Z,101578.78
2022-08-02T21:32:50.525Z,101562.34
2022-08-02T21:37:44.948Z,101570.06
2022-08-02T21:42:35.180Z,101574.25
2022-08-02T21:47:27.899Z,101573.47
2022-08-02T21:52:20.310Z,101573.53
2022-08-02T21:57:16.690Z,101569.38
2022-08-02T22:02:08.368Z,101568.47
2022-08-02T22:06:58.769Z,101566.09
2022-08-02T22:11:51.205Z,101571.66
2022-08-02T22:16:40.881Z,101569.22
2022-08-02T22:21:33.661Z,101568.41
2022-08-02T22:26:40.260Z,101570.22
2022-08-02T22:36:44.017Z,101571.22
2022-08-02T22:42:05.320Z,101571.25
2022-08-02T22:46:49.982Z,101562.44
2022-08-02T22:51:39.953Z,101576.47
2022-08-02T22:56:29.720Z,101578.94
2022-08-02T22:59:05.140Z,101573.88
2022-08-02T22:59:05.411Z,101578.47
2022-08-02T23:01:19.463Z,101573.13
2022-08-02T23:06:12.038Z,101573.41
2022-08-02T23:11:01.781Z,101569.03
2022-08-02T23:16:03.938Z,101564.66
2022-08-02T23:20:53.818Z,101563.09
2022-08-02T23:25:46.322Z,101563.22
2022-08-02T23:30:36.013Z,101559.88
2022-08-02T23:35:25.966Z,101556.50
2022-08-02T23:40:15.871Z,101560.06
2022-08-02T23:45:28.086Z,101559.28
2022-08-02T23:50:27.718Z,101554.03
2022-08-02T23:55:17.611Z,101566.59
